createdAt,value
2018-09-17T00:00:34.613Z,84.52
2018-09-17T00:01:15.460Z,85.39
2018-09-17T00:01:56.251Z,85.19
2018-09-17T00:02:36.991Z,85.25
2018-09-17T00:03:17.759Z,85.1
2018-09-17T00:03:58.554Z,85.19
2018-09-17T00:04:39.367Z,85
2018-09-17T00:05:20.093Z,85.19
2018-09-17T00:06:00.852Z,85
2018-09-17T00:06:41.640Z,85.29
2018-09-17T00:07:22.448Z,84.28
2018-09-17T00:08:03.162Z,85.1
2018-09-17T00:08:43.893Z,84.32
2018-09-17T00:09:24.648Z,85.29
2018-09-17T00:10:05.523Z,85.35
2018-09-17T00:10:46.326Z,85
2018-09-17T00:11:27.093Z,85.68
2018-09-17T00:12:07.829Z,85.19
2018-09-17T00:12:48.633Z,85.19
2018-09-17T00:13:29.433Z,84.91
2018-09-17T00:14:10.202Z,84.91
2018-09-17T00:14:50.933Z,84.52
2018-09-17T00:15:31.722Z,84.71
2018-09-17T00:16:12.599Z,84.61
2018-09-17T00:16:53.390Z,84.91
2018-09-17T00:17:34.206Z,85.1
2018-09-17T00:18:14.916Z,84.42
2018-09-17T00:18:55.649Z,84.71
2018-09-17T00:19:36.432Z,84.81
2018-09-17T00:20:17.229Z,84.32
2018-09-17T00:20:57.987Z,84.81
2018-09-17T00:21:38.722Z,84.77
2018-09-17T00:22:19.528Z,84.71
2018-09-17T00:23:00.356Z,84.81
2018-09-17T00:23:41.193Z,84.81
2018-09-17T00:24:21.918Z,84.61
2018-09-17T00:25:02.697Z,84.71
2018-09-17T00:25:43.515Z,85
2018-09-17T00:26:24.262Z,85.1
2018-09-17T00:27:04.995Z,85.1
2018-09-17T00:27:45.719Z,85
2018-09-17T00:28:26.475Z,84.61
2018-09-17T00:29:07.342Z,84.91
2018-09-17T00:29:48.059Z,84.61
2018-09-17T00:30:28.804Z,85.1
2018-09-17T00:31:09.631Z,84.77
2018-09-17T00:31:50.400Z,84.42
2018-09-17T00:32:31.217Z,84.71
2018-09-17T00:33:11.965Z,84.91
2018-09-17T00:33:52.693Z,84.61
2018-09-17T00:34:33.430Z,84.61
2018-09-17T00:35:14.230Z,84.91
2018-09-17T00:35:55.052Z,84.81
2018-09-17T00:36:35.861Z,84.81
2018-09-17T00:37:16.637Z,84.81
2018-09-17T00:37:57.431Z,84.81
2018-09-17T00:38:38.266Z,84.61
2018-09-17T00:39:19.065Z,84.71
2018-09-17T00:39:59.783Z,84.81
2018-09-17T00:40:40.488Z,84.91
2018-09-17T00:41:21.272Z,84.61
2018-09-17T00:42:02.091Z,84.81
2018-09-17T00:42:42.835Z,84.81
2018-09-17T00:43:23.593Z,84.71
2018-09-17T00:44:04.418Z,84.81
2018-09-17T00:44:45.209Z,84.61
2018-09-17T00:45:26.004Z,84.71
2018-09-17T00:46:06.751Z,84.42
2018-09-17T00:46:47.492Z,84.71
2018-09-17T00:47:28.321Z,84.32
2018-09-17T00:48:09.055Z,84.22
2018-09-17T00:48:49.771Z,84.61
2018-09-17T00:49:30.532Z,84.71
2018-09-17T00:50:11.264Z,84.42
2018-09-17T00:50:52.092Z,84.61
2018-09-17T00:51:32.897Z,84.61
2018-09-17T00:52:13.723Z,84.32
2018-09-17T00:52:54.485Z,83.74
2018-09-17T00:53:35.224Z,84.32
2018-09-17T00:54:15.932Z,84.38
2018-09-17T00:54:56.754Z,83.94
2018-09-17T00:55:37.529Z,84.12
2018-09-17T00:56:18.293Z,84.22
2018-09-17T00:56:59.108Z,84.28
2018-09-17T00:57:39.955Z,83.84
2018-09-17T00:58:20.750Z,84.42
2018-09-17T00:59:01.518Z,83.94
2018-09-17T00:59:42.277Z,83.94
2018-09-17T01:00:23.023Z,83.94
2018-09-17T01:01:03.787Z,83.94
2018-09-17T01:01:44.602Z,84.12
2018-09-17T01:02:25.399Z,84.12
2018-09-17T01:03:06.205Z,84.22
2018-09-17T01:03:46.922Z,84.19
2018-09-17T01:04:27.671Z,84.22
2018-09-17T01:05:08.461Z,84.28
2018-09-17T01:05:49.153Z,84.12
2018-09-17T01:06:29.891Z,84.28
2018-09-17T01:07:10.611Z,84.19
2018-09-17T01:07:51.373Z,84.32
2018-09-17T01:08:32.257Z,84.28
2018-09-17T01:09:13.102Z,84.19
2018-09-17T01:09:53.801Z,84.22
2018-09-17T01:10:34.530Z,84.22
2018-09-17T01:11:15.253Z,84.32
2018-09-17T01:11:56.042Z,84.12
2018-09-17T01:12:36.846Z,84.28
2018-09-17T01:13:17.554Z,83.8
2018-09-17T01:13:58.287Z,84.28
2018-09-17T01:14:39.196Z,83.84
2018-09-17T01:15:19.958Z,83.94
2018-09-17T01:16:00.785Z,83.7
2018-09-17T01:16:41.480Z,83.4
2018-09-17T01:17:22.210Z,83.31
2018-09-17T01:18:03.055Z,83.5
2018-09-17T01:18:43.759Z,83.31
2018-09-17T01:19:24.484Z,83.64
2018-09-17T01:20:05.231Z,83.89
2018-09-17T01:20:45.996Z,83.6
2018-09-17T01:21:26.842Z,83.4
2018-09-17T01:22:07.560Z,83.4
2018-09-17T01:22:48.308Z,83.31
2018-09-17T01:23:29.106Z,83.8
2018-09-17T01:24:09.848Z,83.4
2018-09-17T01:24:50.681Z,83.5
2018-09-17T01:25:31.392Z,83.31
2018-09-17T01:26:12.120Z,83.84
2018-09-17T01:26:52.920Z,83.31
2018-09-17T01:27:33.742Z,83.7
2018-09-17T01:28:14.548Z,83.25
2018-09-17T01:28:55.420Z,83.54
2018-09-17T01:29:36.144Z,83.45
2018-09-17T01:30:16.865Z,83.54
2018-09-17T01:30:57.672Z,83.5
2018-09-17T01:31:38.468Z,83.7
2018-09-17T01:32:19.141Z,83.5
2018-09-17T01:32:59.853Z,83.5
2018-09-17T01:33:40.623Z,83.8
2018-09-17T01:34:21.429Z,83.64
2018-09-17T01:35:02.221Z,83.5
2018-09-17T01:35:42.976Z,83.64
2018-09-17T01:36:23.645Z,83.22
2018-09-17T01:37:04.354Z,83.31
2018-09-17T01:37:45.096Z,83.4
2018-09-17T01:38:25.958Z,83.4
2018-09-17T01:39:06.771Z,83.12
2018-09-17T01:39:47.526Z,83.4
2018-09-17T01:40:28.322Z,83.5
2018-09-17T01:41:09.081Z,83.02
2018-09-17T01:41:49.872Z,83.35
2018-09-17T01:42:30.628Z,83.02
2018-09-17T01:43:11.350Z,83.12
2018-09-17T01:43:52.057Z,83.12
2018-09-17T01:44:32.900Z,82.77
2018-09-17T01:45:13.665Z,82.77
2018-09-17T01:45:54.520Z,82.77
2018-09-17T01:46:35.239Z,83.45
2018-09-17T01:47:15.991Z,83.54
2018-09-17T01:47:56.778Z,82.82
2018-09-17T01:48:37.550Z,82.73
2018-09-17T01:49:18.271Z,82.87
2018-09-17T01:49:58.987Z,82.87
2018-09-17T01:50:39.715Z,82.73
2018-09-17T01:51:20.509Z,82.77
2018-09-17T01:52:01.293Z,83.15
2018-09-17T01:52:41.992Z,82.73
2018-09-17T01:53:22.829Z,83.15
2018-09-17T01:54:03.620Z,82.73
2018-09-17T01:54:44.442Z,82.87
2018-09-17T01:55:25.192Z,82.92
2018-09-17T01:56:05.918Z,82.63
2018-09-17T01:56:46.745Z,82.92
2018-09-17T01:57:27.506Z,82.97
2018-09-17T01:58:08.303Z,82.82
2018-09-17T01:58:49.038Z,83.15
2018-09-17T01:59:29.814Z,83.12
2018-09-17T02:00:10.641Z,82.92
2018-09-17T02:00:51.448Z,82.73
2018-09-17T02:01:32.245Z,82.92
2018-09-17T02:02:12.958Z,82.92
2018-09-17T02:02:53.757Z,82.87
2018-09-17T02:03:34.467Z,82.82
2018-09-17T02:04:15.283Z,83.02
2018-09-17T02:04:56.021Z,82.92
2018-09-17T02:05:36.755Z,82.63
2018-09-17T02:06:17.575Z,83.06
2018-09-17T02:06:58.384Z,82.73
2018-09-17T02:07:39.175Z,82.63
2018-09-17T02:08:19.891Z,82.92
2018-09-17T02:09:00.590Z,82.92
2018-09-17T02:09:41.382Z,82.63
2018-09-17T02:10:22.111Z,82.53
2018-09-17T02:11:02.943Z,82.82
2018-09-17T02:11:43.766Z,82.53
2018-09-17T02:12:24.584Z,82.92
2018-09-17T02:13:05.294Z,83.02
2018-09-17T02:13:46.104Z,82.73
2018-09-17T02:14:26.914Z,82.82
2018-09-17T02:15:07.600Z,83.02
2018-09-17T02:15:48.344Z,82.73
2018-09-17T02:16:29.072Z,82.92
2018-09-17T02:17:09.911Z,82.63
2018-09-17T02:17:50.675Z,82.63
2018-09-17T02:18:31.531Z,83.02
2018-09-17T02:19:12.272Z,82.92
2018-09-17T02:19:53.037Z,82.92
2018-09-17T02:20:33.742Z,83.02
2018-09-17T02:21:14.501Z,82.92
2018-09-17T02:21:55.323Z,83.02
2018-09-17T02:22:36.154Z,83.02
2018-09-17T02:23:16.909Z,82.92
2018-09-17T02:23:57.739Z,82.82
2018-09-17T02:24:38.590Z,82.53
2018-09-17T02:25:19.413Z,82.82
2018-09-17T02:26:00.190Z,82.44
2018-09-17T02:26:40.956Z,82.34
2018-09-17T02:27:21.736Z,82.63
2018-09-17T02:28:02.489Z,82.34
2018-09-17T02:28:43.240Z,82.63
2018-09-17T02:29:23.979Z,82.24
2018-09-17T02:30:04.762Z,82.44
2018-09-17T02:30:45.556Z,82.63
2018-09-17T02:31:26.355Z,82.53
2018-09-17T02:32:07.146Z,82.44
2018-09-17T02:32:47.922Z,82.63
2018-09-17T02:33:28.768Z,82.63
2018-09-17T02:34:09.546Z,82.63
2018-09-17T02:34:50.308Z,82.63
2018-09-17T02:35:31.024Z,82.53
2018-09-17T02:36:11.769Z,82.53
2018-09-17T02:36:52.657Z,82.57
2018-09-17T02:37:33.494Z,82.34
2018-09-17T02:38:14.273Z,82.34
2018-09-17T02:38:55.049Z,82.44
2018-09-17T02:39:35.804Z,82.73
2018-09-17T02:40:16.616Z,82.53
2018-09-17T02:40:57.364Z,82.63
2018-09-17T02:41:38.059Z,82.63
2018-09-17T02:42:18.843Z,83.22
2018-09-17T02:42:59.610Z,82.63
2018-09-17T02:43:40.414Z,82.63
2018-09-17T02:44:21.182Z,83.02
2018-09-17T02:45:01.943Z,82.92
2018-09-17T02:45:42.768Z,82.92
2018-09-17T02:46:23.523Z,82.92
2018-09-17T02:47:04.352Z,82.92
2018-09-17T02:47:45.095Z,83.22
2018-09-17T02:48:25.870Z,82.92
2018-09-17T02:49:06.669Z,82.73
2018-09-17T02:49:47.407Z,82.63
2018-09-17T02:50:28.150Z,82.73
2018-09-17T02:51:08.921Z,82.73
2018-09-17T02:51:49.669Z,82.73
2018-09-17T02:52:30.486Z,82.73
2018-09-17T02:53:11.363Z,82.34
2018-09-17T02:53:52.167Z,82.73
2018-09-17T02:54:32.994Z,83.02
2018-09-17T02:55:13.723Z,82.92
2018-09-17T02:55:54.439Z,83.02
2018-09-17T02:56:35.251Z,82.63
2018-09-17T02:57:16.000Z,82.53
2018-09-17T02:57:56.741Z,82.63
2018-09-17T02:58:37.563Z,82.73
2018-09-17T02:59:18.354Z,83.02
2018-09-17T02:59:59.182Z,82.44
2018-09-17T03:00:39.912Z,82.34
2018-09-17T03:01:20.680Z,82.92
2018-09-17T03:02:01.519Z,83.02
2018-09-17T03:02:42.289Z,83.12
2018-09-17T03:03:23.082Z,82.92
2018-09-17T03:04:03.828Z,83.02
2018-09-17T03:04:44.594Z,82.24
2018-09-17T03:05:25.381Z,82.44
2018-09-17T03:06:06.154Z,82.63
2018-09-17T03:06:46.877Z,82.73
2018-09-17T03:07:27.751Z,82.63
2018-09-17T03:08:08.596Z,82.63
2018-09-17T03:08:49.428Z,82.53
2018-09-17T03:09:30.216Z,82.34
2018-09-17T03:10:11.001Z,82.53
2018-09-17T03:10:51.718Z,82.63
2018-09-17T03:11:32.509Z,82.44
2018-09-17T03:12:13.307Z,82.63
2018-09-17T03:12:54.213Z,82.53
2018-09-17T03:13:34.989Z,82.63
2018-09-17T03:14:15.738Z,82.63
2018-09-17T03:14:56.577Z,82.73
2018-09-17T03:15:37.352Z,82.63
2018-09-17T03:16:18.076Z,82.34
2018-09-17T03:16:58.803Z,82.73
2018-09-17T03:17:39.536Z,82.63
2018-09-17T03:18:20.415Z,82.63
2018-09-17T03:19:01.223Z,82.63
2018-09-17T03:19:42.078Z,82.44
2018-09-17T03:20:22.844Z,82.44
2018-09-17T03:21:03.604Z,82.53
2018-09-17T03:21:44.363Z,82.53
2018-09-17T03:22:25.159Z,82.53
2018-09-17T03:23:05.992Z,82.53
2018-09-17T03:23:46.697Z,82.73
2018-09-17T03:24:27.518Z,82.24
2018-09-17T03:25:08.279Z,82.53
2018-09-17T03:25:49.114Z,82.63
2018-09-17T03:26:29.867Z,82.53
2018-09-17T03:27:10.569Z,82.44
2018-09-17T03:27:51.296Z,82.44
2018-09-17T03:28:32.073Z,82.24
2018-09-17T03:29:12.905Z,82.44
2018-09-17T03:29:53.712Z,82.53
2018-09-17T03:30:34.565Z,82.53
2018-09-17T03:31:15.290Z,82.53
2018-09-17T03:31:56.065Z,82.44
2018-09-17T03:32:36.909Z,82.53
2018-09-17T03:33:17.682Z,82.53
2018-09-17T03:33:58.406Z,82.24
2018-09-17T03:34:39.127Z,82.53
2018-09-17T03:35:19.901Z,82.63
2018-09-17T03:36:00.747Z,82.44
2018-09-17T03:36:41.573Z,82.44
2018-09-17T03:37:22.337Z,82.53
2018-09-17T03:38:03.244Z,82.44
2018-09-17T03:38:44.037Z,82.53
2018-09-17T03:39:24.860Z,82.53
2018-09-17T03:40:05.604Z,82.44
2018-09-17T03:40:46.340Z,82.44
2018-09-17T03:41:27.186Z,82.34
2018-09-17T03:42:07.948Z,82.44
2018-09-17T03:42:48.711Z,82.24
2018-09-17T03:43:29.443Z,82.34
2018-09-17T03:44:10.331Z,82.73
2018-09-17T03:44:51.123Z,82.63
2018-09-17T03:45:31.972Z,82.73
2018-09-17T03:46:12.769Z,82.24
2018-09-17T03:46:53.461Z,82.53
2018-09-17T03:47:34.180Z,82.63
2018-09-17T03:48:14.926Z,82.44
2018-09-17T03:48:55.745Z,82.63
2018-09-17T03:49:36.477Z,82.44
2018-09-17T03:50:17.207Z,82.44
2018-09-17T03:50:58.009Z,82.34
2018-09-17T03:51:38.810Z,83.12
2018-09-17T03:52:19.658Z,82.63
2018-09-17T03:53:00.444Z,83.12
2018-09-17T03:53:41.184Z,82.34
2018-09-17T03:54:21.898Z,82.24
2018-09-17T03:55:02.708Z,82.34
2018-09-17T03:55:43.540Z,82.53
2018-09-17T03:56:24.329Z,82.44
2018-09-17T03:57:05.153Z,82.63
2018-09-17T03:57:45.862Z,82.63
2018-09-17T03:58:26.675Z,82.73
2018-09-17T03:59:07.550Z,82.53
2018-09-17T03:59:48.305Z,83.02
2018-09-17T04:00:29.017Z,82.63
2018-09-17T04:01:09.723Z,82.53
2018-09-17T04:01:50.583Z,82.63
2018-09-17T04:02:31.374Z,82.73
2018-09-17T04:03:12.195Z,82.73
2018-09-17T04:03:52.973Z,82.53
2018-09-17T04:04:33.720Z,82.73
2018-09-17T04:05:14.464Z,82.63
2018-09-17T04:05:55.207Z,82.92
2018-09-17T04:06:36.074Z,82.63
2018-09-17T04:07:16.825Z,83.02
2018-09-17T04:07:57.660Z,82.73
2018-09-17T04:08:38.479Z,82.92
2018-09-17T04:09:19.238Z,82.44
2018-09-17T04:10:00.076Z,82.53
2018-09-17T04:10:40.804Z,82.73
2018-09-17T04:11:21.575Z,82.63
2018-09-17T04:12:02.430Z,82.73
2018-09-17T04:12:43.153Z,82.73
2018-09-17T04:13:23.899Z,82.53
2018-09-17T04:14:04.616Z,82.73
2018-09-17T04:14:45.420Z,82.73
2018-09-17T04:15:26.216Z,82.53
2018-09-17T04:16:06.987Z,82.73
2018-09-17T04:16:47.732Z,82.63
2018-09-17T04:17:28.559Z,82.82
2018-09-17T04:18:09.405Z,82.63
2018-09-17T04:18:50.202Z,82.73
2018-09-17T04:19:30.905Z,82.44
2018-09-17T04:20:11.594Z,82.53
2018-09-17T04:20:52.368Z,82.63
2018-09-17T04:21:33.184Z,82.73
2018-09-17T04:22:13.980Z,82.82
2018-09-17T04:22:54.780Z,82.82
2018-09-17T04:23:35.511Z,82.63
2018-09-17T04:24:16.268Z,83.02
2018-09-17T04:24:57.095Z,82.92
2018-09-17T04:25:37.853Z,82.82
2018-09-17T04:26:18.592Z,82.73
2018-09-17T04:26:59.322Z,82.73
2018-09-17T04:27:40.072Z,82.53
2018-09-17T04:28:20.874Z,82.63
2018-09-17T04:29:01.691Z,82.53
2018-09-17T04:29:42.450Z,82.44
2018-09-17T04:30:23.147Z,82.53
2018-09-17T04:31:03.866Z,82.53
2018-09-17T04:31:44.723Z,82.63
2018-09-17T04:32:25.482Z,82.92
2018-09-17T04:33:06.264Z,82.73
2018-09-17T04:33:46.968Z,82.82
2018-09-17T04:34:27.810Z,82.53
2018-09-17T04:35:08.593Z,82.92
2018-09-17T04:35:49.388Z,82.63
2018-09-17T04:36:30.126Z,82.05
2018-09-17T04:37:10.859Z,83.02
2018-09-17T04:37:51.585Z,83.02
2018-09-17T04:38:32.341Z,82.82
2018-09-17T04:39:13.159Z,82.44
2018-09-17T04:39:54.034Z,82.82
2018-09-17T04:40:34.762Z,82.82
2018-09-17T04:41:15.492Z,82.53
2018-09-17T04:41:56.288Z,82.44
2018-09-17T04:42:37.104Z,82.63
2018-09-17T04:43:17.887Z,82.53
2018-09-17T04:43:58.597Z,82.53
2018-09-17T04:44:39.329Z,82.53
2018-09-17T04:45:20.167Z,82.63
2018-09-17T04:46:00.937Z,82.24
2018-09-17T04:46:41.694Z,82.53
2018-09-17T04:47:22.518Z,82.05
2018-09-17T04:48:03.315Z,82.53
2018-09-17T04:48:44.116Z,82.44
2018-09-17T04:49:24.867Z,83.02
2018-09-17T04:50:05.584Z,82.44
2018-09-17T04:50:46.406Z,82.34
2018-09-17T04:51:27.200Z,82.24
2018-09-17T04:52:07.925Z,82.53
2018-09-17T04:52:48.654Z,82.53
2018-09-17T04:53:29.383Z,82.34
2018-09-17T04:54:10.205Z,82.82
2018-09-17T04:54:51.013Z,82.82
2018-09-17T04:55:31.860Z,82.44
2018-09-17T04:56:12.612Z,82.63
2018-09-17T04:56:53.324Z,82.63
2018-09-17T04:57:34.073Z,82.82
2018-09-17T04:58:14.887Z,82.82
2018-09-17T04:58:55.651Z,82.82
2018-09-17T04:59:36.414Z,82.63
2018-09-17T05:00:17.215Z,82.73
2018-09-17T05:00:58.010Z,82.63
2018-09-17T05:01:38.833Z,82.73
2018-09-17T05:02:19.642Z,82.53
2018-09-17T05:03:00.516Z,82.63
2018-09-17T05:03:41.309Z,82.53
2018-09-17T05:04:22.131Z,82.73
2018-09-17T05:05:02.924Z,82.44
2018-09-17T05:05:43.704Z,82.92
2018-09-17T05:06:24.509Z,82.82
2018-09-17T05:07:05.343Z,82.63
2018-09-17T05:07:46.149Z,82.53
2018-09-17T05:08:26.910Z,82.63
2018-09-17T05:09:07.756Z,82.73
2018-09-17T05:09:48.558Z,82.53
2018-09-17T05:10:29.355Z,82.53
2018-09-17T05:11:10.160Z,82.73
2018-09-17T05:11:50.919Z,82.63
2018-09-17T05:12:31.730Z,82.73
2018-09-17T05:13:12.550Z,83.22
2018-09-17T05:13:53.322Z,83.5
2018-09-17T05:14:34.105Z,83.31
2018-09-17T05:15:14.928Z,83.5
2018-09-17T05:15:55.676Z,83.6
2018-09-17T05:16:36.522Z,83.22
2018-09-17T05:17:17.365Z,83.8
2018-09-17T05:17:58.079Z,83.6
2018-09-17T05:18:38.871Z,83.7
2018-09-17T05:19:19.543Z,83.5
2018-09-17T05:20:00.355Z,83.6
2018-09-17T05:20:41.292Z,83.5
2018-09-17T05:21:21.940Z,83.6
2018-09-17T05:22:02.718Z,83.31
2018-09-17T05:22:43.558Z,83.4
2018-09-17T05:23:24.409Z,83.22
2018-09-17T05:24:05.185Z,83.31
2018-09-17T05:24:45.924Z,83.5
2018-09-17T05:25:26.708Z,82.82
2018-09-17T05:26:07.534Z,82.63
2018-09-17T05:26:48.318Z,82.73
2018-09-17T05:27:29.017Z,82.73
2018-09-17T05:28:09.790Z,82.92
2018-09-17T05:28:50.574Z,82.44
2018-09-17T05:29:31.424Z,82.92
2018-09-17T05:30:12.241Z,82.53
2018-09-17T05:30:53.069Z,83.02
2018-09-17T05:31:33.775Z,82.24
2018-09-17T05:32:14.459Z,82.92
2018-09-17T05:32:55.240Z,82.63
2018-09-17T05:33:36.080Z,82.73
2018-09-17T05:34:16.773Z,82.82
2018-09-17T05:34:57.567Z,82.92
2018-09-17T05:35:38.399Z,82.92
2018-09-17T05:36:19.157Z,82.63
2018-09-17T05:36:59.964Z,82.53
2018-09-17T05:37:40.723Z,82.44
2018-09-17T05:38:21.466Z,82.05
2018-09-17T05:39:02.195Z,82.15
2018-09-17T05:39:43.004Z,82.05
2018-09-17T05:40:23.802Z,81.57
2018-09-17T05:41:04.618Z,81.76
2018-09-17T05:41:45.384Z,82.34
2018-09-17T05:42:26.109Z,82.24
2018-09-17T05:43:06.942Z,82.34
2018-09-17T05:43:47.739Z,82.34
2018-09-17T05:44:28.503Z,82.44
2018-09-17T05:45:09.256Z,82.34
2018-09-17T05:45:50.101Z,82.44
2018-09-17T05:46:30.895Z,82.15
2018-09-17T05:47:11.690Z,82.24
2018-09-17T05:47:52.539Z,82.44
2018-09-17T05:48:33.288Z,82.53
2018-09-17T05:49:14.007Z,82.53
2018-09-17T05:49:54.830Z,82.24
2018-09-17T05:50:35.638Z,82.34
2018-09-17T05:51:16.516Z,82.24
2018-09-17T05:51:57.239Z,82.05
2018-09-17T05:52:38.013Z,82.15
2018-09-17T05:53:18.853Z,82.15
2018-09-17T05:53:59.692Z,81.85
2018-09-17T05:54:40.474Z,82.44
2018-09-17T05:55:21.254Z,82.24
2018-09-17T05:56:02.043Z,82.05
2018-09-17T05:56:42.835Z,81.57
2018-09-17T05:57:23.556Z,81.85
2018-09-17T05:58:04.246Z,81.66
2018-09-17T05:58:45.021Z,82.05
2018-09-17T05:59:25.935Z,81.76
2018-09-17T06:00:06.622Z,81.85
2018-09-17T06:00:47.346Z,81.95
2018-09-17T06:01:28.133Z,81.95
2018-09-17T06:02:08.932Z,81.85
2018-09-17T06:02:49.792Z,81.85
2018-09-17T06:03:30.556Z,82.05
2018-09-17T06:04:11.271Z,81.9
2018-09-17T06:04:52.016Z,81.99
2018-09-17T06:05:32.818Z,81.9
2018-09-17T06:06:13.634Z,81.8
2018-09-17T06:06:54.472Z,81.76
2018-09-17T06:07:35.214Z,81.95
2018-09-17T06:08:15.971Z,82.05
2018-09-17T06:08:56.770Z,82.05
2018-09-17T06:09:37.611Z,82.28
2018-09-17T06:10:18.328Z,82.24
2018-09-17T06:10:59.079Z,81.95
2018-09-17T06:11:39.820Z,82.05
2018-09-17T06:12:20.555Z,82.15
2018-09-17T06:13:01.350Z,82.09
2018-09-17T06:13:42.178Z,81.9
2018-09-17T06:14:22.932Z,81.51
2018-09-17T06:15:03.679Z,81.99
2018-09-17T06:15:44.431Z,81.9
2018-09-17T06:16:25.213Z,81.8
2018-09-17T06:17:06.035Z,81.7
2018-09-17T06:17:46.743Z,81.99
2018-09-17T06:18:27.529Z,81.99
2018-09-17T06:19:08.347Z,81.7
2018-09-17T06:19:49.167Z,81.8
2018-09-17T06:20:29.922Z,81.99
2018-09-17T06:21:10.662Z,82.09
2018-09-17T06:21:51.386Z,81.99
2018-09-17T06:22:32.111Z,82.18
2018-09-17T06:23:12.921Z,82.18
2018-09-17T06:23:53.748Z,82.28
2018-09-17T06:24:34.649Z,82.09
2018-09-17T06:25:15.437Z,82.18
2018-09-17T06:25:56.179Z,82.09
2018-09-17T06:26:37.037Z,81.21
2018-09-17T06:27:17.697Z,81.7
2018-09-17T06:27:58.558Z,82.18
2018-09-17T06:28:39.277Z,82.28
2018-09-17T06:29:20.010Z,81.12
2018-09-17T06:30:00.831Z,81.12
2018-09-17T06:30:41.575Z,81.21
2018-09-17T06:31:22.336Z,81.31
2018-09-17T06:32:03.163Z,81.31
2018-09-17T06:32:43.970Z,81.31
2018-09-17T06:33:24.825Z,81.31
2018-09-17T06:34:05.579Z,81.51
2018-09-17T06:34:46.343Z,81.02
2018-09-17T06:35:27.165Z,81.12
2018-09-17T06:36:07.979Z,81.21
2018-09-17T06:36:48.676Z,81.16
2018-09-17T06:37:29.400Z,80.68
2018-09-17T06:38:10.224Z,80.68
2018-09-17T06:38:51.032Z,81.16
2018-09-17T06:39:31.854Z,80.29
2018-09-17T06:40:12.644Z,80.58
2018-09-17T06:40:53.392Z,80.38
2018-09-17T06:41:34.244Z,79.64
2018-09-17T06:42:14.996Z,78.17
2018-09-17T06:42:55.808Z,76.17
2018-09-17T06:43:36.553Z,75.46
2018-09-17T06:44:17.289Z,73.8
2018-09-17T06:44:58.101Z,72.96
2018-09-17T06:45:38.919Z,72.77
2018-09-17T06:46:19.784Z,73.32
2018-09-17T06:47:00.530Z,74.55
2018-09-17T06:47:41.311Z,75.38
2018-09-17T06:48:22.047Z,76.45
2018-09-17T06:49:02.863Z,76.51
2018-09-17T06:49:43.692Z,76.51
2018-09-17T06:50:24.530Z,77
2018-09-17T06:51:05.301Z,77.25
2018-09-17T06:51:46.024Z,77.39
2018-09-17T06:52:26.805Z,75.97
2018-09-17T06:53:07.612Z,75.23
2018-09-17T06:53:48.426Z,74.74
2018-09-17T06:54:29.142Z,74.26
2018-09-17T06:55:09.909Z,74.35
2018-09-17T06:55:50.788Z,74.45
2018-09-17T06:56:31.593Z,74.84
2018-09-17T06:57:12.419Z,75.38
2018-09-17T06:57:53.141Z,75.19
2018-09-17T06:58:33.871Z,75.58
2018-09-17T06:59:14.574Z,75.38
2018-09-17T06:59:55.400Z,75.19
2018-09-17T07:00:36.222Z,74.9
2018-09-17T07:01:16.945Z,74.61
2018-09-17T07:01:57.718Z,74.99
2018-09-17T07:02:38.562Z,74.71
2018-09-17T07:03:19.330Z,74.9
2018-09-17T07:04:00.148Z,74.71
2018-09-17T07:04:40.881Z,75.38
2018-09-17T07:05:21.725Z,75.09
2018-09-17T07:06:02.563Z,74.99
2018-09-17T07:06:43.322Z,74.9
2018-09-17T07:07:24.054Z,74.9
2018-09-17T07:08:04.877Z,74.71
2018-09-17T07:08:45.658Z,74.99
2018-09-17T07:09:26.485Z,74.71
2018-09-17T07:10:07.281Z,74.9
2018-09-17T07:10:48.067Z,75.29
2018-09-17T07:11:28.838Z,74.99
2018-09-17T07:12:09.678Z,74.61
2018-09-17T07:12:50.450Z,74.9
2018-09-17T07:13:31.143Z,74.9
2018-09-17T07:14:11.838Z,74.9
2018-09-17T07:14:52.618Z,74.9
2018-09-17T07:15:33.546Z,74.9
2018-09-17T07:16:14.374Z,74.9
2018-09-17T07:16:55.214Z,75.19
2018-09-17T07:17:35.945Z,75.58
2018-09-17T07:18:16.701Z,75.09
2018-09-17T07:18:57.583Z,75.38
2018-09-17T07:19:38.363Z,75.19
2018-09-17T07:20:19.107Z,75.48
2018-09-17T07:20:59.859Z,75.54
2018-09-17T07:21:40.657Z,75.45
2018-09-17T07:22:21.540Z,75.35
2018-09-17T07:23:02.276Z,75.64
2018-09-17T07:23:43.079Z,76.42
2018-09-17T07:24:23.895Z,76.03
2018-09-17T07:25:04.710Z,75.93
2018-09-17T07:25:45.511Z,76.12
2018-09-17T07:26:26.278Z,75.93
2018-09-17T07:27:07.062Z,75.35
2018-09-17T07:27:47.877Z,75.45
2018-09-17T07:28:28.648Z,75.74
2018-09-17T07:29:09.442Z,76.51
2018-09-17T07:29:50.230Z,75.35
2018-09-17T07:30:31.112Z,75.54
2018-09-17T07:31:11.966Z,76.18
2018-09-17T07:31:52.748Z,76.03
2018-09-17T07:32:33.567Z,76.12
2018-09-17T07:33:14.301Z,75.99
2018-09-17T07:33:55.077Z,76.28
2018-09-17T07:34:35.822Z,76.77
2018-09-17T07:35:16.618Z,76.38
2018-09-17T07:35:57.381Z,76.12
2018-09-17T07:36:38.140Z,76.48
2018-09-17T07:37:18.911Z,76.28
2018-09-17T07:37:59.749Z,76.38
2018-09-17T07:38:40.582Z,76.38
2018-09-17T07:39:21.315Z,76.48
2018-09-17T07:40:02.073Z,76.09
2018-09-17T07:40:42.894Z,76.18
2018-09-17T07:41:23.650Z,76.77
2018-09-17T07:42:04.466Z,77.35
2018-09-17T07:42:45.195Z,77.35
2018-09-17T07:43:25.944Z,77.64
2018-09-17T07:44:06.794Z,77.55
2018-09-17T07:44:47.487Z,77.35
2018-09-17T07:45:28.216Z,77.35
2018-09-17T07:46:09.031Z,77.06
2018-09-17T07:46:49.854Z,76.77
2018-09-17T07:47:30.679Z,76.67
2018-09-17T07:48:11.366Z,76.57
2018-09-17T07:48:52.129Z,77.35
2018-09-17T07:49:32.846Z,77.35
2018-09-17T07:50:13.652Z,77.45
2018-09-17T07:50:54.493Z,77.35
2018-09-17T07:51:35.318Z,77.25
2018-09-17T07:52:16.112Z,77.45
2018-09-17T07:52:56.922Z,77.94
2018-09-17T07:53:37.667Z,77.94
2018-09-17T07:54:18.522Z,77.84
2018-09-17T07:54:59.219Z,77.84
2018-09-17T07:55:39.938Z,77.45
2018-09-17T07:56:20.734Z,78.87
2018-09-17T07:57:01.579Z,78.58
2018-09-17T07:57:42.394Z,79.06
2018-09-17T07:58:23.224Z,78.61
2018-09-17T07:59:04.025Z,78.42
2018-09-17T07:59:44.784Z,77.94
2018-09-17T08:00:25.508Z,78.13
2018-09-17T08:01:06.318Z,78.33
2018-09-17T08:01:47.109Z,78.42
2018-09-17T08:02:27.915Z,78.42
2018-09-17T08:03:08.717Z,78.52
2018-09-17T08:03:49.492Z,78.71
2018-09-17T08:04:30.265Z,79
2018-09-17T08:05:11.049Z,79.49
2018-09-17T08:05:51.869Z,78.81
2018-09-17T08:06:32.652Z,78.61
2018-09-17T08:07:13.402Z,79.35
2018-09-17T08:07:54.218Z,78.87
2018-09-17T08:08:35.035Z,79.59
2018-09-17T08:09:15.851Z,79.2
2018-09-17T08:09:56.661Z,79.3
2018-09-17T08:10:37.419Z,79
2018-09-17T08:11:18.273Z,79.49
2018-09-17T08:11:59.008Z,78.91
2018-09-17T08:12:39.770Z,78.81
2018-09-17T08:13:20.564Z,79
2018-09-17T08:14:01.360Z,79.25
2018-09-17T08:14:42.168Z,79.3
2018-09-17T08:15:22.896Z,79.94
2018-09-17T08:16:03.635Z,80.23
2018-09-17T08:16:44.459Z,80.04
2018-09-17T08:17:25.226Z,79.94
2018-09-17T08:18:06.058Z,79.94
2018-09-17T08:18:46.774Z,79.45
2018-09-17T08:19:27.628Z,79.94
2018-09-17T08:20:08.387Z,80.42
2018-09-17T08:20:49.135Z,79.74
2018-09-17T08:21:29.882Z,80.04
2018-09-17T08:22:10.683Z,80.04
2018-09-17T08:22:51.529Z,79.64
2018-09-17T08:23:32.375Z,79.74
2018-09-17T08:24:13.220Z,79.64
2018-09-17T08:24:53.988Z,79.16
2018-09-17T08:25:34.792Z,79.94
2018-09-17T08:26:15.471Z,80.32
2018-09-17T08:26:56.256Z,80.32
2018-09-17T08:27:37.082Z,80.52
2018-09-17T08:28:17.777Z,80.62
2018-09-17T08:28:58.557Z,80.13
2018-09-17T08:29:39.400Z,80.32
2018-09-17T08:30:20.183Z,80.23
2018-09-17T08:31:01.021Z,80.32
2018-09-17T08:31:41.718Z,80.52
2018-09-17T08:32:22.459Z,80.81
2018-09-17T08:33:03.186Z,80.62
2018-09-17T08:33:44.014Z,80.81
2018-09-17T08:34:24.887Z,81.39
2018-09-17T08:35:05.663Z,81.49
2018-09-17T08:35:46.444Z,81.01
2018-09-17T08:36:27.212Z,80.91
2018-09-17T08:37:08.033Z,80.91
2018-09-17T08:37:48.787Z,81.49
2018-09-17T08:38:29.538Z,80.81
2018-09-17T08:39:10.308Z,80.91
2018-09-17T08:39:51.086Z,80.91
2018-09-17T08:40:31.885Z,80.46
2018-09-17T08:41:12.718Z,80.32
2018-09-17T08:41:53.490Z,80.71
2018-09-17T08:42:34.201Z,80.85
2018-09-17T08:43:14.984Z,81.1
2018-09-17T08:43:55.744Z,81.39
2018-09-17T08:44:36.571Z,81.1
2018-09-17T08:45:17.336Z,80.91
2018-09-17T08:45:58.067Z,80.81
2018-09-17T08:46:38.877Z,81.49
2018-09-17T08:47:19.710Z,81.59